sensor_id;sensor_type;location;lat;lon;timestamp;pressure;altitude;pressure_sealevel;temperature;humidity
55077;BME280;40971;44.702;11.030;2022-09-09T00:02:11;100969.72;;;18.58;100.00
55077;BME280;40971;44.702;11.030;2022-09-09T00:04:39;100948.50;;;18.49;100.00
55077;BME280;40971;44.702;11.030;2022-09-09T00:07:43;100969.84;;;18.36;100.00
55077;BME280;40971;44.702;11.030;2022-09-09T00:16:19;100969.38;;;17.99;100.00
55077;BME280;40971;44.702;11.030;2022-09-09T00:22:38;100966.72;;;17.99;100.00
55077;BME280;40971;44.702;11.030;2022-09-09T00:25:14;100899.56;;;17.69;100.00
55077;BME280;40971;44.702;11.030;2022-09-09T00:27:48;100957.91;;;18.10;100.00
55077;BME280;40971;44.702;11.030;2022-09-09T00:30:21;100955.19;;;18.00;100.00
55077;BME280;40971;44.702;11.030;2022-09-09T00:33:11;100954.13;;;17.91;100.00
55077;BME280;40971;44.702;11.030;2022-09-09T00:35:45;100955.22;;;17.78;100.00
55077;BME280;40971;44.702;11.030;2022-09-09T00:38:28;100957.28;;;17.74;100.00
55077;BME280;40971;44.702;11.030;2022-09-09T00:43:40;100964.81;;;17.90;100.00
55077;BME280;40971;44.702;11.030;2022-09-09T00:49:12;100966.72;;;17.99;100.00
55077;BME280;40971;44.702;11.030;2022-09-09T00:54:36;100953.53;;;17.88;100.00
55077;BME280;40971;44.702;11.030;2022-09-09T00:59:56;100956.06;;;17.89;100.00
55077;BME280;40971;44.702;11.030;2022-09-09T01:05:12;100913.63;;;17.25;100.00
55077;BME280;40971;44.702;11.030;2022-09-09T01:07:40;100939.44;;;17.33;100.00
55077;BME280;40971;44.702;11.030;2022-09-09T01:10:26;100950.81;;;17.44;100.00
55077;BME280;40971;44.702;11.030;2022-09-09T01:12:58;100957.38;;;17.61;100.00
55077;BME280;40971;44.702;11.030;2022-09-09T01:15:29;100905.22;;;17.09;100.00
55077;BME280;40971;44.702;11.030;2022-09-09T01:18:06;100954.91;;;17.37;100.00
55077;BME280;40971;44.702;11.030;2022-09-09T01:26:19;100951.41;;;17.37;100.00
55077;BME280;40971;44.702;11.030;2022-09-09T01:28:49;100889.03;;;16.91;100.00
55077;BME280;40971;44.702;11.030;2022-09-09T01:31:21;100880.28;;;16.91;100.00
55077;BME280;40971;44.702;11.030;2022-09-09T01:33:48;100942.75;;;17.12;100.00
55077;BME280;40971;44.702;11.030;2022-09-09T01:36:20;100944.81;;;16.98;100.00
55077;BME280;40971;44.702;11.030;2022-09-09T01:38:49;100936.66;;;17.01;100.00
55077;BME280;40971;44.702;11.030;2022-09-09T01:41:14;100935.78;;;16.67;100.00
55077;BME280;40971;44.702;11.030;2022-09-09T01:43:40;100889.47;;;16.28;100.00
55077;BME280;40971;44.702;11.030;2022-09-09T01:46:05;100940.00;;;16.80;100.00
55077;BME280;40971;44.702;11.030;2022-09-09T01:48:32;100944.78;;;16.87;100.00
55077;BME280;40971;44.702;11.030;2022-09-09T01:50:58;100862.34;;;16.61;100.00
55077;BME280;40971;44.702;11.030;2022-09-09T01:53:24;100862.34;;;16.61;100.00
55077;BME280;40971;44.702;11.030;2022-09-09T02:01:33;100939.84;;;16.71;100.00
55077;BME280;40971;44.702;11.030;2022-09-09T02:04:03;100931.16;;;16.58;100.00
55077;BME280;40971;44.702;11.030;2022-09-09T02:06:39;100943.97;;;16.51;100.00
55077;BME280;40971;44.702;11.030;2022-09-09T02:09:06;100942.78;;;16.55;100.00
55077;BME280;40971;44.702;11.030;2022-09-09T02:11:33;100946.63;;;16.27;100.00
55077;BME280;40971;44.702;11.030;2022-09-09T02:14:08;100944.22;;;16.24;100.00
55077;BME280;40971;44.702;11.030;2022-09-09T02:19:14;100954.38;;;16.17;100.00
55077;BME280;40971;44.702;11.030;2022-09-09T02:21:43;100947.03;;;16.34;100.00
55077;BME280;40971;44.702;11.030;2022-09-09T02:24:12;100948.66;;;16.59;100.00
55077;BME280;40971;44.702;11.030;2022-09-09T02:26:42;100896.34;;;16.41;100.00
55077;BME280;40971;44.702;11.030;2022-09-09T02:29:16;100959.38;;;16.79;100.00
55077;BME280;40971;44.702;11.030;2022-09-09T02:31:45;100934.06;;;16.66;100.00
55077;BME280;40971;44.702;11.030;2022-09-09T02:34:13;100947.56;;;16.61;100.00
55077;BME280;40971;44.702;11.030;2022-09-09T02:36:42;100888.19;;;16.33;100.00
55077;BME280;40971;44.702;11.030;2022-09-09T02:39:11;100935.16;;;16.39;100.00
55077;BME280;40971;44.702;11.030;2022-09-09T02:41:39;100945.94;;;16.36;100.00
55077;BME280;40971;44.702;11.030;2022-09-09T02:44:10;100948.22;;;16.30;100.00
55077;BME280;40971;44.702;11.030;2022-09-09T02:49:38;100931.03;;;16.24;100.00
55077;BME280;40971;44.702;11.030;2022-09-09T02:52:08;100872.94;;;15.67;100.00
55077;BME280;40971;44.702;11.030;2022-09-09T02:54:38;100926.41;;;16.04;100.00
55077;BME280;40971;44.702;11.030;2022-09-09T02:57:17;100947.31;;;16.18;100.00
55077;BME280;40971;44.702;11.030;2022-09-09T02:59:44;100903.25;;;15.72;100.00
55077;BME280;40971;44.702;11.030;2022-09-09T03:02:10;100919.88;;;15.73;100.00
55077;BME280;40971;44.702;11.030;2022-09-09T03:04:37;100863.50;;;15.51;100.00
55077;BME280;40971;44.702;11.030;2022-09-09T03:07:03;100925.00;;;15.87;100.00
55077;BME280;40971;44.702;11.030;2022-09-09T03:09:29;100936.06;;;16.16;100.00
55077;BME280;40971;44.702;11.030;2022-09-09T03:11:54;100934.75;;;16.21;100.00
55077;BME280;40971;44.702;11.030;2022-09-09T03:14:23;100797.63;;;15.16;100.00
55077;BME280;40971;44.702;11.030;2022-09-09T03:16:52;100925.28;;;15.95;100.00
55077;BME280;40971;44.702;11.030;2022-09-09T03:19:18;100858.69;;;15.45;100.00
55077;BME280;40971;44.702;11.030;2022-09-09T03:21:45;100927.41;;;15.66;100.00
55077;BME280;40971;44.702;11.030;2022-09-09T03:24:11;100855.78;;;15.24;100.00
55077;BME280;40971;44.702;11.030;2022-09-09T03:26:36;100925.78;;;15.76;100.00
55077;BME280;40971;44.702;11.030;2022-09-09T03:29:03;100923.78;;;15.80;100.00
55077;BME280;40971;44.702;11.030;2022-09-09T03:31:30;100916.41;;;15.72;100.00
55077;BME280;40971;44.702;11.030;2022-09-09T03:33:57;100923.13;;;15.76;100.00
55077;BME280;40971;44.702;11.030;2022-09-09T03:36:23;100915.31;;;15.87;100.00
55077;BME280;40971;44.702;11.030;2022-09-09T03:38:49;100924.88;;;15.64;100.00
55077;BME280;40971;44.702;11.030;2022-09-09T03:41:15;100926.56;;;15.53;100.00
55077;BME280;40971;44.702;11.030;2022-09-09T03:43:41;100843.56;;;14.74;100.00
55077;BME280;40971;44.702;11.030;2022-09-09T03:46:07;100920.88;;;15.59;100.00
55077;BME280;40971;44.702;11.030;2022-09-09T03:48:32;100922.97;;;15.67;100.00
55077;BME280;40971;44.702;11.030;2022-09-09T03:50:58;100895.28;;;15.61;100.00
55077;BME280;40971;44.702;11.030;2022-09-09T03:53:25;100921.84;;;15.45;100.00
55077;BME280;40971;44.702;11.030;2022-09-09T03:55:53;100855.31;;;14.94;100.00
55077;BME280;40971;44.702;11.030;2022-09-09T03:58:20;100899.44;;;15.27;100.00
55077;BME280;40971;44.702;11.030;2022-09-09T04:01:13;100906.78;;;15.47;100.00
55077;BME280;40971;44.702;11.030;2022-09-09T04:03:40;100915.63;;;15.59;100.00
55077;BME280;40971;44.702;11.030;2022-09-09T04:06:08;100914.34;;;15.52;100.00
55077;BME280;40971;44.702;11.030;2022-09-09T04:08:35;100897.75;;;15.39;100.00
55077;BME280;40971;44.702;11.030;2022-09-09T04:11:02;100905.53;;;15.27;100.00
55077;BME280;40971;44.702;11.030;2022-09-09T04:13:30;100902.28;;;15.37;100.00
55077;BME280;40971;44.702;11.030;2022-09-09T04:15:58;100922.50;;;15.36;100.00
55077;BME280;40971;44.702;11.030;2022-09-09T04:18:24;100845.72;;;15.05;100.00
55077;BME280;40971;44.702;11.030;2022-09-09T04:20:52;100914.75;;;15.58;100.00
55077;BME280;40971;44.702;11.030;2022-09-09T04:23:18;100931.81;;;15.66;100.00
55077;BME280;40971;44.702;11.030;2022-09-09T04:25:45;100910.22;;;15.60;100.00
55077;BME280;40971;44.702;11.030;2022-09-09T04:28:12;100892.16;;;15.43;100.00
55077;BME280;40971;44.702;11.030;2022-09-09T04:30:38;100917.47;;;15.57;100.00
55077;BME280;40971;44.702;11.030;2022-09-09T04:33:05;100900.84;;;15.56;100.00
55077;BME280;40971;44.702;11.030;2022-09-09T04:35:32;100861.97;;;15.36;100.00
55077;BME280;40971;44.702;11.030;2022-09-09T04:37:58;100896.88;;;15.63;100.00
55077;BME280;40971;44.702;11.030;2022-09-09T04:40:23;100910.69;;;15.78;100.00
55077;BME280;40971;44.702;11.030;2022-09-09T04:42:50;100839.22;;;15.35;100.00
55077;BME280;40971;44.702;11.030;2022-09-09T04:45:16;100896.75;;;15.65;100.00
55077;BME280;40971;44.702;11.030;2022-09-09T04:47:41;100916.31;;;15.74;100.00
55077;BME280;40971;44.702;11.030;2022-09-09T04:50:08;100902.91;;;15.77;100.00
55077;BME280;40971;44.702;11.030;2022-09-09T04:52:34;100893.09;;;15.79;100.00
55077;BME280;40971;44.702;11.030;2022-09-09T04:55:01;100885.44;;;15.76;100.00
55077;BME280;40971;44.702;11.030;2022-09-09T04:57:27;100906.28;;;15.79;100.00
55077;BME280;40971;44.702;11.030;2022-09-09T04:59:54;100896.31;;;15.58;100.00
55077;BME280;40971;44.702;11.030;2022-09-09T05:02:19;100913.78;;;15.72;100.00
55077;BME280;40971;44.702;11.030;2022-09-09T05:04:44;100878.34;;;15.52;100.00
55077;BME280;40971;44.702;11.030;2022-09-09T05:07:10;100898.34;;;15.55;100.00
55077;BME280;40971;44.702;11.030;2022-09-09T05:09:35;100854.22;;;15.22;100.00
55077;BME280;40971;44.702;11.030;2022-09-09T05:12:01;100845.25;;;15.24;100.00
55077;BME280;40971;44.702;11.030;2022-09-09T05:14:28;100920.19;;;15.81;100.00
55077;BME280;40971;44.702;11.030;2022-09-09T05:16:55;100885.44;;;15.76;100.00
55077;BME280;40971;44.702;11.030;2022-09-09T05:19:21;100904.50;;;16.03;100.00
55077;BME280;40971;44.702;11.030;2022-09-09T05:21:46;100917.84;;;16.13;100.00
55077;BME280;40971;44.702;11.030;2022-09-09T05:24:13;100920.47;;;16.13;100.00
55077;BME280;40971;44.702;11.030;2022-09-09T05:26:39;100929.25;;;16.24;100.00
55077;BME280;40971;44.702;11.030;2022-09-09T05:29:05;100815.16;;;15.76;100.00
55077;BME280;40971;44.702;11.030;2022-09-09T05:31:31;100937.66;;;16.65;100.00
55077;BME280;40971;44.702;11.030;2022-09-09T05:33:56;100937.00;;;16.85;100.00
55077;BME280;40971;44.702;11.030;2022-09-09T05:36:22;100934.63;;;17.04;100.00
55077;BME280;40971;44.702;11.030;2022-09-09T05:38:48;100948.41;;;17.08;100.00
55077;BME280;40971;44.702;11.030;2022-09-09T05:41:15;100934.28;;;16.98;100.00
55077;BME280;40971;44.702;11.030;2022-09-09T05:43:41;100947.19;;;16.90;100.00
55077;BME280;40971;44.702;11.030;2022-09-09T05:46:18;100864.13;;;16.38;100.00
55077;BME280;40971;44.702;11.030;2022-09-09T05:48:45;100934.56;;;16.71;100.00
55077;BME280;40971;44.702;11.030;2022-09-09T05:51:16;100955.59;;;16.83;100.00
55077;BME280;40971;44.702;11.030;2022-09-09T05:53:43;100952.22;;;16.93;100.00
55077;BME280;40971;44.702;11.030;2022-09-09T05:58:46;100925.38;;;17.10;100.00
55077;BME280;40971;44.702;11.030;2022-09-09T06:01:19;100825.22;;;16.64;100.00
55077;BME280;40971;44.702;11.030;2022-09-09T06:03:46;100930.31;;;17.48;100.00
55077;BME280;40971;44.702;11.030;2022-09-09T06:06:17;100933.50;;;17.74;100.00
55077;BME280;40971;44.702;11.030;2022-09-09T06:08:43;100941.03;;;17.90;100.00
55077;BME280;40971;44.702;11.030;2022-09-09T06:11:14;100946.66;;;17.96;100.00
55077;BME280;40971;44.702;11.030;2022-09-09T06:13:40;100952.78;;;17.97;100.00
55077;BME280;40971;44.702;11.030;2022-09-09T06:16:13;100952.63;;;18.10;100.00
55077;BME280;40971;44.702;11.030;2022-09-09T06:18:39;100946.72;;;18.17;100.00
55077;BME280;40971;44.702;11.030;2022-09-09T06:21:08;100943.69;;;18.22;100.00
55077;BME280;40971;44.702;11.030;2022-09-09T06:23:34;100947.47;;;18.08;100.00
55077;BME280;40971;44.702;11.030;2022-09-09T06:26:09;100950.69;;;18.12;100.00
55077;BME280;40971;44.702;11.030;2022-09-09T06:28:35;100949.50;;;18.16;100.00
55077;BME280;40971;44.702;11.030;2022-09-09T06:31:08;100953.81;;;18.17;100.00
55077;BME280;40971;44.702;11.030;2022-09-09T06:33:37;100943.84;;;18.09;100.00
55077;BME280;40971;44.702;11.030;2022-09-09T06:36:07;100864.81;;;17.85;100.00
55077;BME280;40971;44.702;11.030;2022-09-09T06:38:35;100922.16;;;18.26;100.00
55077;BME280;40971;44.702;11.030;2022-09-09T06:41:00;100896.88;;;18.13;100.00
55077;BME280;40971;44.702;11.030;2022-09-09T06:43:27;100933.66;;;18.37;100.00
55077;BME280;40971;44.702;11.030;2022-09-09T06:48:28;100931.41;;;18.53;100.00
55077;BME280;40971;44.702;11.030;2022-09-09T06:51:07;100930.81;;;18.81;100.00
55077;BME280;40971;44.702;11.030;2022-09-09T06:53:37;100940.44;;;18.92;100.00
55077;BME280;40971;44.702;11.030;2022-09-09T06:58:50;100909.75;;;19.10;100.00
55077;BME280;40971;44.702;11.030;2022-09-09T07:01:27;100910.09;;;19.27;100.00
55077;BME280;40971;44.702;11.030;2022-09-09T07:03:56;100921.69;;;19.66;100.00
55077;BME280;40971;44.702;11.030;2022-09-09T07:06:28;100946.50;;;19.74;100.00
55077;BME280;40971;44.702;11.030;2022-09-09T07:08:59;100934.91;;;19.56;100.00
55077;BME280;40971;44.702;11.030;2022-09-09T07:11:30;100842.59;;;18.71;100.00
55077;BME280;40971;44.702;11.030;2022-09-09T07:14:00;100934.06;;;19.25;100.00
55077;BME280;40971;44.702;11.030;2022-09-09T07:16:26;100923.75;;;19.22;100.00
55077;BME280;40971;44.702;11.030;2022-09-09T07:18:57;100930.31;;;19.28;100.00
55077;BME280;40971;44.702;11.030;2022-09-09T07:21:26;100933.94;;;19.27;100.00
55077;BME280;40971;44.702;11.030;2022-09-09T07:23:53;100933.56;;;19.41;100.00
55077;BME280;40971;44.702;11.030;2022-09-09T07:26:22;100890.25;;;19.11;100.00
55077;BME280;40971;44.702;11.030;2022-09-09T07:28:48;100929.97;;;19.51;100.00
55077;BME280;40971;44.702;11.030;2022-09-09T07:31:16;100924.97;;;19.48;100.00
55077;BME280;40971;44.702;11.030;2022-09-09T07:33:43;100917.25;;;20.34;100.00
55077;BME280;40971;44.702;11.030;2022-09-09T07:36:15;100930.88;;;21.34;100.00
55077;BME280;40971;44.702;11.030;2022-09-09T07:38:47;100944.84;;;21.63;100.00
55077;BME280;40971;44.702;11.030;2022-09-09T07:41:15;100918.22;;;21.73;100.00
55077;BME280;40971;44.702;11.030;2022-09-09T07:43:42;100940.69;;;22.06;100.00
55077;BME280;40971;44.702;11.030;2022-09-09T07:46:10;100917.56;;;22.07;100.00
55077;BME280;40971;44.702;11.030;2022-09-09T07:48:35;100923.19;;;22.39;100.00
55077;BME280;40971;44.702;11.030;2022-09-09T07:51:28;100935.97;;;22.62;100.00
55077;BME280;40971;44.702;11.030;2022-09-09T07:54:01;100937.16;;;23.11;100.00
55077;BME280;40971;44.702;11.030;2022-09-09T07:56:29;100921.75;;;23.31;98.47
55077;BME280;40971;44.702;11.030;2022-09-09T07:58:56;100927.72;;;23.25;93.42
55077;BME280;40971;44.702;11.030;2022-09-09T08:01:27;100879.88;;;23.15;92.39
55077;BME280;40971;44.702;11.030;2022-09-09T08:04:01;100933.94;;;23.76;91.18
55077;BME280;40971;44.702;11.030;2022-09-09T08:06:34;100941.84;;;24.26;88.38
55077;BME280;40971;44.702;11.030;2022-09-09T08:09:00;100930.34;;;24.66;88.92
55077;BME280;40971;44.702;11.030;2022-09-09T08:11:27;100933.97;;;25.06;86.06
55077;BME280;40971;44.702;11.030;2022-09-09T08:13:54;100927.75;;;25.13;85.21
55077;BME280;40971;44.702;11.030;2022-09-09T08:16:24;100938.97;;;25.09;85.11
55077;BME280;40971;44.702;11.030;2022-09-09T08:18:51;100936.81;;;24.88;82.28
55077;BME280;40971;44.702;11.030;2022-09-09T08:21:19;100945.22;;;24.60;80.42
55077;BME280;40971;44.702;11.030;2022-09-09T08:23:45;100935.31;;;24.85;82.61
55077;BME280;40971;44.702;11.030;2022-09-09T08:26:17;100934.16;;;25.04;79.89
55077;BME280;40971;44.702;11.030;2022-09-09T08:28:46;100876.38;;;24.87;78.44
55077;BME280;40971;44.702;11.030;2022-09-09T08:31:14;100923.19;;;25.61;80.03
55077;BME280;40971;44.702;11.030;2022-09-09T08:33:41;100940.06;;;26.24;77.72
55077;BME280;40971;44.702;11.030;2022-09-09T08:36:10;100928.84;;;26.20;74.77
55077;BME280;40971;44.702;11.030;2022-09-09T08:38:37;100942.06;;;26.45;74.72
55077;BME280;40971;44.702;11.030;2022-09-09T08:46:55;100920.13;;;26.26;66.28
55077;BME280;40971;44.702;11.030;2022-09-09T08:51:54;100885.91;;;26.36;67.17
55077;BME280;40971;44.702;11.030;2022-09-09T08:54:22;100920.16;;;26.79;68.36
55077;BME280;40971;44.702;11.030;2022-09-09T08:56:48;100936.94;;;27.10;67.85
55077;BME280;40971;44.702;11.030;2022-09-09T08:59:17;100940.25;;;27.27;64.40
55077;BME280;40971;44.702;11.030;2022-09-09T09:02:16;100943.75;;;27.42;62.48
55077;BME280;40971;44.702;11.030;2022-09-09T09:10:25;100941.41;;;27.69;64.57
55077;BME280;40971;44.702;11.030;2022-09-09T09:12:55;100936.13;;;27.75;60.90
55077;BME280;40971;44.702;11.030;2022-09-09T09:15:26;100942.22;;;28.05;59.99
55077;BME280;40971;44.702;11.030;2022-09-09T09:17:54;100879.50;;;27.92;58.68
55077;BME280;40971;44.702;11.030;2022-09-09T09:20:26;100942.53;;;28.17;56.36
55077;BME280;40971;44.702;11.030;2022-09-09T09:23:00;100937.09;;;28.10;57.07
55077;BME280;40971;44.702;11.030;2022-09-09T09:25:38;100938.63;;;27.98;56.83
55077;BME280;40971;44.702;11.030;2022-09-09T09:28:20;100883.59;;;28.09;51.93
55077;BME280;40971;44.702;11.030;2022-09-09T09:33:42;100928.84;;;28.12;60.20
55077;BME280;40971;44.702;11.030;2022-09-09T09:36:12;100889.25;;;28.21;59.57
55077;BME280;40971;44.702;11.030;2022-09-09T09:39:00;100938.88;;;28.46;56.74
55077;BME280;40971;44.702;11.030;2022-09-09T09:41:40;100931.75;;;28.32;56.33
55077;BME280;40971;44.702;11.030;2022-09-09T09:44:31;100939.41;;;28.35;55.58
55077;BME280;40971;44.702;11.030;2022-09-09T09:49:58;100936.47;;;28.30;55.36
55077;BME280;40971;44.702;11.030;2022-09-09T09:52:29;100942.41;;;28.46;57.40
55077;BME280;40971;44.702;11.030;2022-09-09T09:54:57;100924.03;;;28.50;52.09
55077;BME280;40971;44.702;11.030;2022-09-09T09:57:28;100924.88;;;28.51;54.86
55077;BME280;40971;44.702;11.030;2022-09-09T10:00:12;100936.16;;;28.39;55.16
55077;BME280;40971;44.702;11.030;2022-09-09T10:02:41;100933.00;;;28.36;55.11
55077;BME280;40971;44.702;11.030;2022-09-09T10:05:28;100868.31;;;27.88;55.97
55077;BME280;40971;44.702;11.030;2022-09-09T10:10:39;100914.84;;;28.16;58.78
55077;BME280;40971;44.702;11.030;2022-09-09T10:13:11;100926.41;;;28.38;55.76
55077;BME280;40971;44.702;11.030;2022-09-09T10:16:21;100911.88;;;28.54;52.69
55077;BME280;40971;44.702;11.030;2022-09-09T10:35:25;100913.03;;;29.01;53.44
55077;BME280;40971;44.702;11.030;2022-09-09T10:57:16;100901.16;;;29.23;50.35
55077;BME280;40971;44.702;11.030;2022-09-09T10:59:47;100897.66;;;29.23;46.84
55077;BME280;40971;44.702;11.030;2022-09-09T11:04:44;100882.84;;;29.53;45.46
55077;BME280;40971;44.702;11.030;2022-09-09T11:07:23;100889.03;;;29.41;46.06
55077;BME280;40971;44.702;11.030;2022-09-09T11:09:56;100846.13;;;29.32;46.64
55077;BME280;40971;44.702;11.030;2022-09-09T11:12:25;100868.97;;;29.50;46.07
55077;BME280;40971;44.702;11.030;2022-09-09T11:15:07;100886.38;;;29.47;46.69
55077;BME280;40971;44.702;11.030;2022-09-09T11:17:46;100886.00;;;29.70;46.59
55077;BME280;40971;44.702;11.030;2022-09-09T11:20:14;100812.28;;;29.51;44.62
55077;BME280;40971;44.702;11.030;2022-09-09T11:22:58;100872.38;;;29.78;45.08
55077;BME280;40971;44.702;11.030;2022-09-09T11:25:51;100874.84;;;29.86;45.45
55077;BME280;40971;44.702;11.030;2022-09-09T11:28:34;100811.56;;;29.23;45.68
55077;BME280;40971;44.702;11.030;2022-09-09T11:31:27;100838.81;;;29.81;45.09
55077;BME280;40971;44.702;11.030;2022-09-09T11:37:08;100865.97;;;29.92;43.91
55077;BME280;40971;44.702;11.030;2022-09-09T11:40:29;100867.69;;;30.07;42.79
55077;BME280;40971;44.702;11.030;2022-09-09T11:42:48;100863.88;;;29.88;44.29
55077;BME280;40971;44.702;11.030;2022-09-09T11:45:24;100863.50;;;30.17;43.17
55077;BME280;40971;44.702;11.030;2022-09-09T11:47:56;100860.59;;;29.92;42.61
55077;BME280;40971;44.702;11.030;2022-09-09T11:50:27;100850.19;;;29.89;43.25
55077;BME280;40971;44.702;11.030;2022-09-09T11:53:24;100837.56;;;29.83;44.07
55077;BME280;40971;44.702;11.030;2022-09-09T11:56:11;100868.50;;;30.27;44.24
55077;BME280;40971;44.702;11.030;2022-09-09T11:58:41;100854.19;;;30.33;44.17
55077;BME280;40971;44.702;11.030;2022-09-09T12:01:27;100859.78;;;30.25;44.01
55077;BME280;40971;44.702;11.030;2022-09-09T12:06:59;100810.44;;;29.98;42.60
55077;BME280;40971;44.702;11.030;2022-09-09T12:09:47;100799.03;;;29.89;45.08
55077;BME280;40971;44.702;11.030;2022-09-09T12:12:34;100865.78;;;30.14;50.63
55077;BME280;40971;44.702;11.030;2022-09-09T12:17:42;100795.56;;;28.60;55.63
55077;BME280;40971;44.702;11.030;2022-09-09T12:20:31;100870.84;;;29.01;57.47
55077;BME280;40971;44.702;11.030;2022-09-09T12:25:58;100769.91;;;28.58;57.70
55077;BME280;40971;44.702;11.030;2022-09-09T12:32:31;100876.50;;;29.20;56.66
55077;BME280;40971;44.702;11.030;2022-09-09T12:37:49;100872.94;;;29.54;56.85
55077;BME280;40971;44.702;11.030;2022-09-09T12:39:57;100872.47;;;29.44;59.90
55077;BME280;40971;44.702;11.030;2022-09-09T12:42:25;100879.41;;;29.79;53.31
55077;BME280;40971;44.702;11.030;2022-09-09T12:47:26;100874.56;;;29.48;56.59
55077;BME280;40971;44.702;11.030;2022-09-09T12:49:54;100862.63;;;29.16;56.35
55077;BME280;40971;44.702;11.030;2022-09-09T12:54:50;100858.88;;;29.58;55.03
55077;BME280;40971;44.702;11.030;2022-09-09T12:57:19;100759.78;;;29.01;54.40
55077;BME280;40971;44.702;11.030;2022-09-09T12:59:47;100867.41;;;29.95;54.56
55077;BME280;40971;44.702;11.030;2022-09-09T13:02:26;100860.56;;;29.99;53.19
55077;BME280;40971;44.702;11.030;2022-09-09T13:04:53;100865.53;;;29.89;50.24
55077;BME280;40971;44.702;11.030;2022-09-09T13:07:20;100845.84;;;29.69;49.54
55077;BME280;40971;44.702;11.030;2022-09-09T13:09:48;100852.09;;;30.02;47.33
55077;BME280;40971;44.702;11.030;2022-09-09T13:12:22;100847.94;;;30.00;46.91
55077;BME280;40971;44.702;11.030;2022-09-09T13:14:54;100846.31;;;30.25;48.36
55077;BME280;40971;44.702;11.030;2022-09-09T13:17:25;100838.63;;;30.35;49.05
55077;BME280;40971;44.702;11.030;2022-09-09T13:19:54;100772.56;;;29.80;48.05
55077;BME280;40971;44.702;11.030;2022-09-09T13:22:37;100831.16;;;30.37;49.96
55077;BME280;40971;44.702;11.030;2022-09-09T13:27:41;100846.66;;;30.81;47.83
55077;BME280;40971;44.702;11.030;2022-09-09T13:32:58;100844.66;;;30.11;48.27
55077;BME280;40971;44.702;11.030;2022-09-09T13:35:24;100845.66;;;29.97;47.96
55077;BME280;40971;44.702;11.030;2022-09-09T13:37:50;100837.41;;;30.11;50.62
55077;BME280;40971;44.702;11.030;2022-09-09T13:40:20;100817.91;;;30.22;48.16
55077;BME280;40971;44.702;11.030;2022-09-09T13:42:47;100840.31;;;30.16;47.40
55077;BME280;40971;44.702;11.030;2022-09-09T13:45:22;100855.03;;;30.14;46.61
55077;BME280;40971;44.702;11.030;2022-09-09T13:47:48;100746.88;;;29.77;44.93
55077;BME280;40971;44.702;11.030;2022-09-09T13:50:25;100852.47;;;30.78;44.01
55077;BME280;40971;44.702;11.030;2022-09-09T13:52:58;100846.13;;;31.04;43.38
55077;BME280;40971;44.702;11.030;2022-09-09T13:55:26;100809.75;;;30.69;46.47
55077;BME280;40971;44.702;11.030;2022-09-09T13:57:56;100742.84;;;29.20;45.62
55077;BME280;40971;44.702;11.030;2022-09-09T14:00:23;100851.47;;;29.13;47.62
55077;BME280;40971;44.702;11.030;2022-09-09T14:02:49;100794.78;;;28.10;50.83
55077;BME280;40971;44.702;11.030;2022-09-09T14:05:17;100844.25;;;28.23;51.99
55077;BME280;40971;44.702;11.030;2022-09-09T14:07:43;100833.72;;;28.00;51.17
55077;BME280;40971;44.702;11.030;2022-09-09T14:10:10;100843.94;;;28.32;52.73
55077;BME280;40971;44.702;11.030;2022-09-09T14:12:36;100831.91;;;28.56;51.14
55077;BME280;40971;44.702;11.030;2022-09-09T14:15:05;100775.94;;;28.66;49.68
55077;BME280;40971;44.702;11.030;2022-09-09T14:17:31;100823.03;;;28.90;49.14
55077;BME280;40971;44.702;11.030;2022-09-09T14:19:57;100817.06;;;29.01;51.38
55077;BME280;40971;44.702;11.030;2022-09-09T14:22:23;100799.22;;;29.55;50.34
55077;BME280;40971;44.702;11.030;2022-09-09T14:24:49;100748.44;;;28.64;49.11
55077;BME280;40971;44.702;11.030;2022-09-09T14:27:16;100821.00;;;29.80;48.31
55077;BME280;40971;44.702;11.030;2022-09-09T14:29:41;100826.56;;;29.72;48.07
55077;BME280;40971;44.702;11.030;2022-09-09T14:32:08;100825.94;;;29.50;48.86
55077;BME280;40971;44.702;11.030;2022-09-09T14:34:34;100837.53;;;29.50;47.72
55077;BME280;40971;44.702;11.030;2022-09-09T14:37:00;100819.13;;;28.93;51.87
55077;BME280;40971;44.702;11.030;2022-09-09T14:39:26;100764.91;;;28.55;50.23
55077;BME280;40971;44.702;11.030;2022-09-09T14:41:52;100827.63;;;28.68;50.56
55077;BME280;40971;44.702;11.030;2022-09-09T14:44:17;100827.28;;;28.43;50.20
55077;BME280;40971;44.702;11.030;2022-09-09T14:46:44;100832.06;;;28.48;48.28
55077;BME280;40971;44.702;11.030;2022-09-09T14:49:09;100836.50;;;28.34;50.91
55077;BME280;40971;44.702;11.030;2022-09-09T14:51:38;100828.28;;;28.14;50.15
55077;BME280;40971;44.702;11.030;2022-09-09T14:54:03;100822.50;;;28.39;50.07
55077;BME280;40971;44.702;11.030;2022-09-09T14:56:31;100786.94;;;28.37;49.21
55077;BME280;40971;44.702;11.030;2022-09-09T14:58:58;100822.34;;;29.29;49.73
55077;BME280;40971;44.702;11.030;2022-09-09T15:01:26;100831.97;;;29.58;47.10
55077;BME280;40971;44.702;11.030;2022-09-09T15:03:57;100812.94;;;29.73;46.46
55077;BME280;40971;44.702;11.030;2022-09-09T15:06:24;100841.63;;;29.40;48.13
55077;BME280;40971;44.702;11.030;2022-09-09T15:08:51;100845.09;;;29.33;50.12
55077;BME280;40971;44.702;11.030;2022-09-09T15:11:18;100862.69;;;29.23;48.68